CSE5 weather

Montmagny Airport
Montmagny, Quebec, Canada

Public forecast

Using degrees Celsius for public forecast. Weather courtesy of forecast.io.

METAR (pilot weather report)

Closest report is Quebec Jean Lesage International Airport, 38.2 nm (70.7 km) WSW. Retrieved 2019/07/18 14:00 UTC (27 minutes ago):

CYQB 181400Z 13003KT 040V170 30SM FEW030 FEW180 SCT250 20/10 A3005 RMK SC1AC1CI3 SC TR SLP178 DENSITY ALT 800FT

TAF (pilot weather forecast)

Forecast is more than 12 hours old.

Closest forecast is Charlevoix Airport, 37.7 nm (69.8 km) NNE. Retrieved 2018/06/10 18:00 UTC (1 year ago):

TAF CYML 101730Z 1018/1106 12005KT P6SM FEW060 FM102100 14006KT P6SM SCT080 BECMG 1021/1023 VRB03KT RMK NXT FCST BY 110000Z